Altus, OK

1:12 PM CDT on October 23, 2014 (GMT -0500)
Corbin & Russell Addition | Change Station
CLOSE
Current Station
Personal Weather Station
Location: Altus, OK
Elevation: 1407 ft
Nearby Weather Stations

Elev 1407 ft 34.65 °N, 99.34 °W | Updated 4 seconds ago

Clear
Clear
76.8 °F
Feels Like 79 °F
N
8.0
Wind Variable Wind from South
Gusts 11.0 mph

Today
High -- | Low -- °F
--% Chance of Precip.
Yesterday
High -- | Low -- °F
Precip. -- in
7:49 AM 6:53 PM
Waning Crescent, 0% visible
Pressure 30.13 in
Visibility 10.0 miles
Clouds Clear
Heat Index 79 °F
Dew Point 64 °F
Humidity 65%
Rainfall 0.00 in
Snow Depth Not available.
UV 6 out of 12
Pollen 5.30 out of 12
Air Quality Not available.
Flu Activity No Activity
METAR KAXS 231755Z AUTO 22011G14KT 10SM CLR 24/15 A3013 RMK AO2 60001 T02350153 10235 20140

More Conditions Fewer Conditions

Pressure 30.13 in
Visibility 10.0 miles
Clouds Clear
Heat Index 79 °F
Dew Point 64 °F
Humidity 65%
Rainfall 0.00 in
Snow Depth Not available.
UV 6 out of 12
Pollen 5.30 out of 12
Air Quality Not available.
Flu Activity No Activity
METAR KAXS 231755Z AUTO 22011G14KT 10SM CLR 24/15 A3013 RMK AO2 60001 T02350153 10235 20140

More Conditions Fewer Conditions

10-Day Weather Forecast

Almanac

Astronomy

Oct. 23, 2014 Rise Set
Actual Time 7:49 AM CDT 6:53 PM CDT
Civil Twilight 7:24 AM CDT 7:18 PM CDT
Nautical Twilight 6:54 AM CDT 7:48 PM CDT
Astronomical Twilight 6:25 AM CDT 8:17 PM CDT
Moon 7:31 AM CDT 6:55 PM CDT
Length of Visible Light 11h 54m
Length of Day
11h 03m
Tomorrow will be 2m 1s shorter.
Waning Crescent, 0% of the Moon is Illuminated
Today
Waning Crescent
Oct 23
New
Oct 30
First Quarter
Nov 6
Full
Nov 14
Last Quarter

Today's Extremes

State Highs State Lows

Community

WunderPhotos

Upload Photos

1,764,333 photos uploaded!

WunderBlogs® & News

By Dr. Jeff Masters
Director of Meteorology, Weather Underground
By Kari Strenfel
Meteorologist, Weather Underground
By Christopher C. Burt
Weather Historian, Weather Underground
October 23, 2014
October 23, 2014
October 23, 2014

Nearby

Snow Depth

Station Depth Elevation
No new snow has been reported.

Earthquake Activity

City Distance Mag. Time & Date
Crescent, Oklahoma 140 miles 2.7 9:58 PM CDT
2014-10-22
Mooreland, Oklahoma 129 miles 2.8 5:31 PM CDT
2014-10-22
Mooreland, Oklahoma 128 miles 2.5 11:19 AM CDT
2014-10-22
Mooreland, Oklahoma 129 miles 2.8 11:04 AM CDT
2014-10-22
Minimum magnitude displayed is 2.5.

Coastal Water Temperatures

Place Temperature
No Stations Reporting

Nearby Weather Stations